Master Jet — 5BKD3 — position and weather

sailwx.info

Track history (hours):
 
Tides and Currents Weather Stations Pressure Air Temp Water Temp Dewpoint Dewpoint Depression Visibility Wind Speed Wind Dir Waves Ship Positions

Master Jet

Last reported at 2015-May-30 13:33 UTC. Time now 2015-May-30 14:27 UTC.
Position N 36°23' E 025°26'.

Length 74 m; draft 2.9 m.

Type: Ship. MMSI: 209349000.

Date/timePositionNaut miles runAvg speedWind from/ knotsBaromVisibWave heightAir tempDewpointWater temp
2015-May-30 13:33N 36°23' E 025°26'0 0.0
2015-May-30 12:33N 36°23' E 025°26'0 0.0
2015-May-30 11:32N 36°23' E 025°26'0 0.0
2015-May-30 10:33N 36°23' E 025°26'0 0.0
2015-May-30 09:33N 36°23' E 025°26'0 0.0
2015-May-30 08:33N 36°23' E 025°26'2019.8
2015-May-30 07:33N 36°05' E 025°17'  
2015-May-27 19:12N 35°21' E 025°09'0 0.0
2015-May-27 18:26N 35°21' E 025°09'0 0.0
2015-May-27 17:32N 35°21' E 025°09'0 0.0
2015-May-27 16:27N 35°21' E 025°09'0 0.0
2015-May-27 15:15N 35°21' E 025°09'0 0.0
2015-May-27 14:33N 35°21' E 025°09'0 0.0
2015-May-27 13:29N 35°21' E 025°09'0 0.0
2015-May-27 12:24N 35°21' E 025°09'0 0.0
2015-May-27 10:32N 35°21' E 025°09'0 0.0
2015-May-27 09:32N 35°21' E 025°09'0 0.0
2015-May-27 07:28N 35°21' E 025°09'0 0.0
2015-May-26 20:04N 35°21' E 025°09'0 0.0
2015-May-26 19:31N 35°21' E 025°09'1010.6
2015-May-26 18:33N 35°27' E 024°59'2524.6
2015-May-26 17:32N 35°22' E 024°29'2424.4
2015-May-26 16:33N 35°42' E 024°46'3029.7
2015-May-26 15:33N 36°06' E 025°07'2322.8
2015-May-26 14:33N 36°23' E 025°26'0 0.0
2015-May-26 13:32N 36°23' E 025°26'0 0.0
2015-May-26 12:33N 36°23' E 025°26'0 0.0
2015-May-26 11:32N 36°23' E 025°26'0 0.0
2015-May-26 10:32N 36°23' E 025°26'0 0.0
2015-May-26 09:33N 36°23' E 025°26'0 0.0
2015-May-26 08:32N 36°23' E 025°26'1 0.6
2015-May-26 07:33N 36°23' E 025°25'2827.8
2015-May-26 06:33N 36°02' E 025°03'2928.5
2015-May-26 05:33N 35°39' E 024°42'25 8.3
2015-May-26 02:30N 35°23' E 025°07'3 0.4
2015-May-25 18:32N 35°21' E 025°09'3617.5
2015-May-25 16:28N 35°56' E 025°19'2527.4
2015-May-25 15:33N 36°21' E 025°20'3617.0
2015-May-25 13:27N 36°56' E 025°17'1920.9
2015-May-25 12:34N 37°15' E 025°20'1010.2
2015-May-25 11:34N 37°25' E 025°17'1918.9
2015-May-25 10:34N 37°06' E 025°19'3323.4
2015-May-25 09:08N 36°32' E 025°19'1117.5
2015-May-25 08:32N 36°23' E 025°26'1718.0
2015-May-25 07:34N 36°07' E 025°19'13 0.9
2015-May-24 17:09N 35°53' E 025°18'1626.8
2015-May-24 16:33N 36°09' E 025°19'1514.7
2015-May-24 15:32N 36°23' E 025°26'4020.1
2015-May-24 13:34N 37°02' E 025°18'1818.2
2015-May-24 12:34N 37°21' E 025°18'3 2.6
2015-May-24 11:34N 37°23' E 025°17'1817.8
2015-May-24 10:34N 37°05' E 025°19'3222.0
2015-May-24 09:06N 36°33' E 025°19'1120.4
2015-May-24 08:33N 36°23' E 025°26'1211.7
2015-May-24 07:33N 36°12' E 025°21'2827.0
2015-May-24 06:31N 35°45' E 025°16'25 8.2
2015-May-24 03:31N 35°21' E 025°09'0 0.0
2015-May-24 02:26N 35°21' E 025°09'0 0.0
2015-May-24 01:32N 35°21' E 025°09'0 0.0
2015-May-24 00:33N 35°21' E 025°09'0 0.0
2015-May-23 23:33N 35°21' E 025°09'0 0.0
2015-May-23 22:32N 35°21' E 025°09'0 0.0
2015-May-23 21:33N 35°21' E 025°09'0 0.0
2015-May-23 20:33N 35°21' E 025°09'0 0.0
2015-May-23 19:34N 35°21' E 025°09'1010.2
2015-May-23 18:33N 35°26' E 024°58'2424.5
2015-May-23 17:33N 35°22' E 024°29'2625.8
2015-May-23 16:33N 35°44' E 024°47'2928.9
2015-May-23 15:33N 36°07' E 025°08'2221.3
2015-May-23 14:32N 36°23' E 025°26'0 0.0
2015-May-23 13:33N 36°23' E 025°26'0 0.0
2015-May-23 12:33N 36°23' E 025°26'0 0.0
2015-May-23 11:32N 36°23' E 025°26'0 0.0
2015-May-23 10:32N 36°23' E 025°26'0 0.0
2015-May-23 09:32N 36°23' E 025°26'0 0.0
2015-May-23 08:32N 36°23' E 025°26'0 0.0
2015-May-23 07:33N 36°23' E 025°26'2727.0
2015-May-23 06:33N 36°03' E 025°04'2928.6
2015-May-23 05:33N 35°39' E 024°44'2120.6
2015-May-23 04:32N 35°22' E 024°29'7 6.8
2015-May-23 03:33N 35°26' E 024°36'2525.3
2015-May-23 02:33N 35°23' E 025°07'3 2.9
2015-May-23 01:33N 35°21' E 025°09'0 0.0
2015-May-23 00:33N 35°21' E 025°09'0 0.0
2015-May-22 23:33N 35°21' E 025°09'0 0.0
2015-May-22 22:32N 35°21' E 025°09'0 0.0
2015-May-22 21:32N 35°21' E 025°09'0 0.0
2015-May-22 20:32N 35°21' E 025°09'0 0.0
2015-May-22 19:32N 35°21' E 025°09'0 0.0
2015-May-22 18:33N 35°21' E 025°09'0 0.0
2015-May-22 17:33N 35°21' E 025°09'2120.4
2015-May-22 16:33N 35°41' E 025°13'2929.1
2015-May-22 15:33N 36°10' E 025°18'1616.0
2015-May-22 14:33N 36°25' E 025°24'3223.8
2015-May-22 13:12N 36°56' E 025°16'1319.6
2015-May-22 12:34N 37°08' E 025°22'2019.9
2015-May-22 11:33N 37°28' E 025°19'2221.6
2015-May-22 10:33N 37°06' E 025°22'4220.8
2015-May-22 08:33N 36°25' E 025°19'1010.2
2015-May-22 07:33N 36°15' E 025°19'2928.6
2015-May-22 06:33N 35°46' E 025°13'2626.0
2015-May-22 05:33N 35°21' E 025°09'0 0.1
2015-May-22 04:33N 35°21' E 025°09'0 0.0
2015-May-22 03:33N 35°21' E 025°09'0 0.0
2015-May-22 02:33N 35°21' E 025°09'0 0.0
2015-May-22 01:33N 35°21' E 025°09'0 0.0
2015-May-22 00:33N 35°21' E 025°09'0 0.0
2015-May-21 23:33N 35°21' E 025°09'0 0.0
2015-May-21 22:32N 35°21' E 025°09'0 0.0
2015-May-21 21:32N 35°21' E 025°09'0 0.0
2015-May-21 20:32N 35°21' E 025°09'0 0.0
2015-May-21 19:33N 35°21' E 025°09'0 0.0
2015-May-21 18:33N 35°21' E 025°09'0 0.0
2015-May-21 17:33N 35°21' E 025°09'2423.6
2015-May-21 16:33N 35°44' E 025°13'2928.6
2015-May-21 15:33N 36°12' E 025°18'1313.4
2015-May-21 14:33N 36°25' E 025°22'3424.0
2015-May-21 13:07N 36°59' E 025°18'1017.1
2015-May-21 12:34N 37°08' E 025°22'2019.7
2015-May-21 11:33N 37°28' E 025°19'2221.6
2015-May-21 10:33N 37°06' E 025°22'4220.9
2015-May-21 08:33N 36°25' E 025°20'1111.0
2015-May-21 07:33N 36°14' E 025°19'2828.1
2015-May-21 06:33N 35°46' E 025°14'2523.8
2015-May-21 05:29N 35°21' E 025°09'0 0.0
2015-May-21 04:28N 35°21' E 025°09'0 0.0
2015-May-21 02:19N 35°21' E 025°09'30 3.0
2015-May-20 16:33N 35°50' E 025°11'2727.2
2015-May-20 15:33N 36°17' E 025°20'9 9.3
2015-May-20 14:33N 36°26' E 025°23'  
Track history (hours):
 
Tides and Currents Weather Stations Pressure Air Temp Water Temp Dewpoint Dewpoint Depression Visibility Wind Speed Wind Dir Waves Ship Positions

Master Jet

Last reported at 2015-May-30 13:33 UTC. Time now 2015-May-30 14:27 UTC.
Position N 36°23' E 025°26'.

Length 74 m; draft 2.9 m.

Type: Ship. MMSI: 209349000.

Date/timePositionNaut miles runAvg speedWind from/ knotsBaromVisibWave heightAir tempDewpointWater temp
2015-May-30 13:33N 36°23' E 025°26'0 0.0
2015-May-30 12:33N 36°23' E 025°26'0 0.0
2015-May-30 11:32N 36°23' E 025°26'0 0.0
2015-May-30 10:33N 36°23' E 025°26'0 0.0
2015-May-30 09:33N 36°23' E 025°26'0 0.0
2015-May-30 08:33N 36°23' E 025°26'2019.8
2015-May-30 07:33N 36°05' E 025°17'  
2015-May-27 19:12N 35°21' E 025°09'0 0.0
2015-May-27 18:26N 35°21' E 025°09'0 0.0
2015-May-27 17:32N 35°21' E 025°09'0 0.0
2015-May-27 16:27N 35°21' E 025°09'0 0.0
2015-May-27 15:15N 35°21' E 025°09'0 0.0
2015-May-27 14:33N 35°21' E 025°09'0 0.0
2015-May-27 13:29N 35°21' E 025°09'0 0.0
2015-May-27 12:24N 35°21' E 025°09'0 0.0
2015-May-27 10:32N 35°21' E 025°09'0 0.0
2015-May-27 09:32N 35°21' E 025°09'0 0.0
2015-May-27 07:28N 35°21' E 025°09'0 0.0
2015-May-26 20:04N 35°21' E 025°09'0 0.0
2015-May-26 19:31N 35°21' E 025°09'1010.6
2015-May-26 18:33N 35°27' E 024°59'2524.6
2015-May-26 17:32N 35°22' E 024°29'2424.4
2015-May-26 16:33N 35°42' E 024°46'3029.7
2015-May-26 15:33N 36°06' E 025°07'2322.8
2015-May-26 14:33N 36°23' E 025°26'0 0.0
2015-May-26 13:32N 36°23' E 025°26'0 0.0
2015-May-26 12:33N 36°23' E 025°26'0 0.0
2015-May-26 11:32N 36°23' E 025°26'0 0.0
2015-May-26 10:32N 36°23' E 025°26'0 0.0
2015-May-26 09:33N 36°23' E 025°26'0 0.0
2015-May-26 08:32N 36°23' E 025°26'1 0.6
2015-May-26 07:33N 36°23' E 025°25'2827.8
2015-May-26 06:33N 36°02' E 025°03'2928.5
2015-May-26 05:33N 35°39' E 024°42'25 8.3
2015-May-26 02:30N 35°23' E 025°07'3 0.4
2015-May-25 18:32N 35°21' E 025°09'3617.5
2015-May-25 16:28N 35°56' E 025°19'2527.4
2015-May-25 15:33N 36°21' E 025°20'3617.0
2015-May-25 13:27N 36°56' E 025°17'1920.9
2015-May-25 12:34N 37°15' E 025°20'1010.2
2015-May-25 11:34N 37°25' E 025°17'1918.9
2015-May-25 10:34N 37°06' E 025°19'3323.4
2015-May-25 09:08N 36°32' E 025°19'1117.5
2015-May-25 08:32N 36°23' E 025°26'1718.0
2015-May-25 07:34N 36°07' E 025°19'13 0.9
2015-May-24 17:09N 35°53' E 025°18'1626.8
2015-May-24 16:33N 36°09' E 025°19'1514.7
2015-May-24 15:32N 36°23' E 025°26'4020.1
2015-May-24 13:34N 37°02' E 025°18'1818.2
2015-May-24 12:34N 37°21' E 025°18'3 2.6
2015-May-24 11:34N 37°23' E 025°17'1817.8
2015-May-24 10:34N 37°05' E 025°19'3222.0
2015-May-24 09:06N 36°33' E 025°19'1120.4
2015-May-24 08:33N 36°23' E 025°26'1211.7
2015-May-24 07:33N 36°12' E 025°21'2827.0
2015-May-24 06:31N 35°45' E 025°16'25 8.2
2015-May-24 03:31N 35°21' E 025°09'0 0.0
2015-May-24 02:26N 35°21' E 025°09'0 0.0
2015-May-24 01:32N 35°21' E 025°09'0 0.0
2015-May-24 00:33N 35°21' E 025°09'0 0.0
2015-May-23 23:33N 35°21' E 025°09'0 0.0
2015-May-23 22:32N 35°21' E 025°09'0 0.0
2015-May-23 21:33N 35°21' E 025°09'0 0.0
2015-May-23 20:33N 35°21' E 025°09'0 0.0
2015-May-23 19:34N 35°21' E 025°09'1010.2
2015-May-23 18:33N 35°26' E 024°58'2424.5
2015-May-23 17:33N 35°22' E 024°29'2625.8
2015-May-23 16:33N 35°44' E 024°47'2928.9
2015-May-23 15:33N 36°07' E 025°08'2221.3
2015-May-23 14:32N 36°23' E 025°26'0 0.0
2015-May-23 13:33N 36°23' E 025°26'0 0.0
2015-May-23 12:33N 36°23' E 025°26'0 0.0
2015-May-23 11:32N 36°23' E 025°26'0 0.0
2015-May-23 10:32N 36°23' E 025°26'0 0.0
2015-May-23 09:32N 36°23' E 025°26'0 0.0
2015-May-23 08:32N 36°23' E 025°26'0 0.0
2015-May-23 07:33N 36°23' E 025°26'2727.0
2015-May-23 06:33N 36°03' E 025°04'2928.6
2015-May-23 05:33N 35°39' E 024°44'2120.6
2015-May-23 04:32N 35°22' E 024°29'7 6.8
2015-May-23 03:33N 35°26' E 024°36'2525.3
2015-May-23 02:33N 35°23' E 025°07'3 2.9
2015-May-23 01:33N 35°21' E 025°09'0 0.0
2015-May-23 00:33N 35°21' E 025°09'0 0.0
2015-May-22 23:33N 35°21' E 025°09'0 0.0
2015-May-22 22:32N 35°21' E 025°09'0 0.0
2015-May-22 21:32N 35°21' E 025°09'0 0.0
2015-May-22 20:32N 35°21' E 025°09'0 0.0
2015-May-22 19:32N 35°21' E 025°09'0 0.0
2015-May-22 18:33N 35°21' E 025°09'0 0.0
2015-May-22 17:33N 35°21' E 025°09'2120.4
2015-May-22 16:33N 35°41' E 025°13'2929.1
2015-May-22 15:33N 36°10' E 025°18'1616.0
2015-May-22 14:33N 36°25' E 025°24'3223.8
2015-May-22 13:12N 36°56' E 025°16'1319.6
2015-May-22 12:34N 37°08' E 025°22'2019.9
2015-May-22 11:33N 37°28' E 025°19'2221.6
2015-May-22 10:33N 37°06' E 025°22'4220.8
2015-May-22 08:33N 36°25' E 025°19'1010.2
2015-May-22 07:33N 36°15' E 025°19'2928.6
2015-May-22 06:33N 35°46' E 025°13'2626.0
2015-May-22 05:33N 35°21' E 025°09'0 0.1
2015-May-22 04:33N 35°21' E 025°09'0 0.0
2015-May-22 03:33N 35°21' E 025°09'0 0.0
2015-May-22 02:33N 35°21' E 025°09'0 0.0
2015-May-22 01:33N 35°21' E 025°09'0 0.0
2015-May-22 00:33N 35°21' E 025°09'0 0.0
2015-May-21 23:33N 35°21' E 025°09'0 0.0
2015-May-21 22:32N 35°21' E 025°09'0 0.0
2015-May-21 21:32N 35°21' E 025°09'0 0.0
2015-May-21 20:32N 35°21' E 025°09'0 0.0
2015-May-21 19:33N 35°21' E 025°09'0 0.0
2015-May-21 18:33N 35°21' E 025°09'0 0.0
2015-May-21 17:33N 35°21' E 025°09'2423.6
2015-May-21 16:33N 35°44' E 025°13'2928.6
2015-May-21 15:33N 36°12' E 025°18'1313.4
2015-May-21 14:33N 36°25' E 025°22'3424.0
2015-May-21 13:07N 36°59' E 025°18'1017.1
2015-May-21 12:34N 37°08' E 025°22'2019.7
2015-May-21 11:33N 37°28' E 025°19'2221.6
2015-May-21 10:33N 37°06' E 025°22'4220.9
2015-May-21 08:33N 36°25' E 025°20'1111.0
2015-May-21 07:33N 36°14' E 025°19'2828.1
2015-May-21 06:33N 35°46' E 025°14'2523.8
2015-May-21 05:29N 35°21' E 025°09'0 0.0
2015-May-21 04:28N 35°21' E 025°09'0 0.0
2015-May-21 02:19N 35°21' E 025°09'30 3.0
2015-May-20 16:33N 35°50' E 025°11'2727.2
2015-May-20 15:33N 36°17' E 025°20'9 9.3
2015-May-20 14:33N 36°26' E 025°23'  

Dump ship's entire track history